createdAt,value
2023-05-16T00:00:09.286Z,13.73
2023-05-16T00:00:41.954Z,14.93
2023-05-16T00:01:10.469Z,15.82
2023-05-16T00:01:23.306Z,15.70
2023-05-16T00:01:35.949Z,16.02
2023-05-16T00:01:48.828Z,16.42
2023-05-16T00:02:03.467Z,15.38
2023-05-16T00:02:16.283Z,14.18
2023-05-16T00:02:29.971Z,14.30
2023-05-16T00:02:43.197Z,14.98
2023-05-16T00:02:55.886Z,14.05
2023-05-16T00:03:09.482Z,14.30
2023-05-16T00:03:22.228Z,14.85
2023-05-16T00:03:34.988Z,15.18
2023-05-16T00:03:47.835Z,14.23
2023-05-16T00:04:03.583Z,14.32
2023-05-16T00:04:16.312Z,14.05
2023-05-16T00:04:28.916Z,14.45
2023-05-16T00:04:41.492Z,14.77
2023-05-16T00:04:54.539Z,15.00
2023-05-16T00:05:07.947Z,14.52
2023-05-16T00:05:21.660Z,14.20
2023-05-16T00:05:34.196Z,14.90
2023-05-16T00:05:46.848Z,15.15
2023-05-16T00:05:59.530Z,14.75
2023-05-16T00:06:12.290Z,14.32
2023-05-16T00:06:25.414Z,12.60
2023-05-16T00:06:37.939Z,13.02
2023-05-16T00:06:51.500Z,13.93
2023-05-16T00:07:04.182Z,14.77
2023-05-16T00:07:17.613Z,14.63
2023-05-16T00:07:30.163Z,14.70
2023-05-16T00:07:43.939Z,15.98
2023-05-16T00:07:59.003Z,16.63
2023-05-16T00:08:11.540Z,16.83
2023-05-16T00:08:24.075Z,15.82
2023-05-16T00:08:36.667Z,15.85
2023-05-16T00:08:49.245Z,15.68
2023-05-16T00:09:01.755Z,15.23
2023-05-16T00:09:14.250Z,13.52
2023-05-16T00:09:27.768Z,12.82
2023-05-16T00:09:40.710Z,12.73
2023-05-16T00:09:53.342Z,12.27
2023-05-16T00:10:07.175Z,13.07
2023-05-16T00:10:19.762Z,14.18
2023-05-16T00:10:32.483Z,14.90
2023-05-16T00:10:45.034Z,14.63
2023-05-16T00:10:58.516Z,14.32
2023-05-16T00:11:11.180Z,14.23
2023-05-16T00:11:23.985Z,13.90
2023-05-16T00:11:36.506Z,13.23
2023-05-16T00:11:50.262Z,13.48
2023-05-16T00:12:03.235Z,15.38
2023-05-16T00:12:17.843Z,15.38
2023-05-16T00:12:30.490Z,15.05
2023-05-16T00:12:44.269Z,15.07
2023-05-16T00:12:57.547Z,14.15
2023-05-16T00:13:10.159Z,14.20
2023-05-16T00:13:25.183Z,13.85
2023-05-16T00:13:38.865Z,14.50
2023-05-16T00:13:51.558Z,14.82
2023-05-16T00:14:04.299Z,13.63
2023-05-16T00:14:19.395Z,13.25
2023-05-16T00:14:31.930Z,13.55
2023-05-16T00:14:44.430Z,13.65
2023-05-16T00:14:57.118Z,15.52
2023-05-16T00:15:12.960Z,15.27
2023-05-16T00:15:25.483Z,14.00
2023-05-16T00:15:38.545Z,13.73
2023-05-16T00:15:52.131Z,13.98
2023-05-16T00:16:07.465Z,14.63
2023-05-16T00:16:21.810Z,13.48
2023-05-16T00:16:37.102Z,13.07
2023-05-16T00:16:50.808Z,15.05
2023-05-16T00:17:04.827Z,14.68
2023-05-16T00:17:20.455Z,12.98
2023-05-16T00:17:33.108Z,13.80
2023-05-16T00:17:46.886Z,14.48
2023-05-16T00:17:59.796Z,13.52
2023-05-16T00:18:15.687Z,12.98
2023-05-16T00:18:28.722Z,13.70
2023-05-16T00:18:41.520Z,13.57
2023-05-16T00:18:54.680Z,12.73
2023-05-16T00:19:09.077Z,14.02
2023-05-16T00:19:21.933Z,13.45
2023-05-16T00:19:35.593Z,15.73
2023-05-16T00:19:49.065Z,15.48
2023-05-16T00:20:08.905Z,12.20
2023-05-16T00:20:23.684Z,12.65
2023-05-16T00:20:37.705Z,13.48
2023-05-16T00:20:51.963Z,13.00
2023-05-16T00:21:04.772Z,12.38
2023-05-16T00:21:17.329Z,12.68
2023-05-16T00:21:29.853Z,13.73
2023-05-16T00:21:44.740Z,13.45
2023-05-16T00:21:58.255Z,12.93
2023-05-16T00:22:11.496Z,14.07
2023-05-16T00:22:24.201Z,14.30
2023-05-16T00:22:37.122Z,12.73
2023-05-16T00:22:50.005Z,12.65
2023-05-16T00:23:03.874Z,12.68
2023-05-16T00:23:17.119Z,13.02
2023-05-16T00:23:30.760Z,12.88
2023-05-16T00:23:43.321Z,13.50
2023-05-16T00:23:55.831Z,13.40
2023-05-16T00:24:08.965Z,14.90
2023-05-16T00:24:22.016Z,14.40
2023-05-16T00:24:34.693Z,15.50
2023-05-16T00:24:48.165Z,15.50
2023-05-16T00:25:01.054Z,15.00
2023-05-16T00:25:13.659Z,13.27
2023-05-16T00:25:26.591Z,14.43
2023-05-16T00:25:39.129Z,14.98
2023-05-16T00:25:51.670Z,14.93
2023-05-16T00:26:04.261Z,12.90
2023-05-16T00:26:16.849Z,13.55
2023-05-16T00:26:30.865Z,13.20
2023-05-16T00:26:43.375Z,12.57
2023-05-16T00:26:55.912Z,12.10
2023-05-16T00:27:08.472Z,11.65
2023-05-16T00:27:21.056Z,11.70
2023-05-16T00:27:34.714Z,12.38
2023-05-16T00:27:47.318Z,13.30
2023-05-16T00:28:00.862Z,13.73
2023-05-16T00:28:13.448Z,14.05
2023-05-16T00:28:26.137Z,13.90
2023-05-16T00:28:38.797Z,13.50
2023-05-16T00:28:51.385Z,13.93
2023-05-16T00:29:03.929Z,13.52
2023-05-16T00:29:16.447Z,12.88
2023-05-16T00:29:29.984Z,12.02
2023-05-16T00:29:42.481Z,12.52
2023-05-16T00:29:55.464Z,13.25
2023-05-16T00:30:08.988Z,14.02
2023-05-16T00:30:22.838Z,15.05
2023-05-16T00:30:35.484Z,15.35
2023-05-16T00:30:48.236Z,14.20
2023-05-16T00:31:01.736Z,12.68
2023-05-16T00:31:14.563Z,11.82
2023-05-16T00:31:27.423Z,11.73
2023-05-16T00:31:40.043Z,11.93
2023-05-16T00:31:52.750Z,13.13
2023-05-16T00:32:08.741Z,14.38
2023-05-16T00:32:21.679Z,13.98
2023-05-16T00:32:34.484Z,13.52
2023-05-16T00:32:47.100Z,13.90
2023-05-16T00:32:59.750Z,14.25
2023-05-16T00:33:12.339Z,13.63
2023-05-16T00:33:25.007Z,13.40
2023-05-16T00:33:38.522Z,12.75
2023-05-16T00:33:51.335Z,12.27
2023-05-16T00:34:04.060Z,12.80
2023-05-16T00:34:16.753Z,13.23
2023-05-16T00:34:29.435Z,14.55
2023-05-16T00:34:42.091Z,13.85
2023-05-16T00:34:54.670Z,12.27
2023-05-16T00:35:10.702Z,11.95
2023-05-16T00:35:23.532Z,12.93
2023-05-16T00:35:36.054Z,13.52
2023-05-16T00:35:49.275Z,12.60
2023-05-16T00:36:01.876Z,12.38
2023-05-16T00:36:15.393Z,13.98
2023-05-16T00:36:29.015Z,15.88
2023-05-16T00:36:41.644Z,15.00
2023-05-16T00:36:54.228Z,13.45
2023-05-16T00:37:06.822Z,13.25
2023-05-16T00:37:19.351Z,13.00
2023-05-16T00:37:31.831Z,12.32
2023-05-16T00:37:45.802Z,12.60
2023-05-16T00:37:58.321Z,12.52
2023-05-16T00:38:12.655Z,12.05
2023-05-16T00:38:26.167Z,12.82
2023-05-16T00:38:38.815Z,12.90
2023-05-16T00:38:51.328Z,12.45
2023-05-16T00:39:05.053Z,12.13
2023-05-16T00:39:17.649Z,12.07
2023-05-16T00:39:30.924Z,12.05
2023-05-16T00:39:43.467Z,12.52
2023-05-16T00:39:55.999Z,13.02
2023-05-16T00:40:09.388Z,13.02
2023-05-16T00:40:22.073Z,13.70
2023-05-16T00:40:35.608Z,13.52
2023-05-16T00:40:48.137Z,13.90
2023-05-16T00:41:00.647Z,15.55
2023-05-16T00:41:13.564Z,14.90
2023-05-16T00:41:26.402Z,14.35
2023-05-16T00:41:39.476Z,12.77
2023-05-16T00:41:53.141Z,11.68
2023-05-16T00:42:06.046Z,11.23
2023-05-16T00:42:20.042Z,11.80
2023-05-16T00:42:32.653Z,12.50
2023-05-16T00:42:45.188Z,12.23
2023-05-16T00:42:57.922Z,11.77
2023-05-16T00:43:10.734Z,11.80
2023-05-16T00:43:24.361Z,13.30
2023-05-16T00:43:36.875Z,13.13
2023-05-16T00:43:49.418Z,12.45
2023-05-16T00:44:01.932Z,11.88
2023-05-16T00:44:14.486Z,12.02
2023-05-16T00:44:27.083Z,12.43
2023-05-16T00:44:39.632Z,11.82
2023-05-16T00:44:52.240Z,12.15
2023-05-16T00:45:06.884Z,12.68
2023-05-16T00:45:20.112Z,12.27
2023-05-16T00:45:32.692Z,11.70
2023-05-16T00:45:45.738Z,12.73
2023-05-16T00:45:58.406Z,12.32
2023-05-16T00:46:11.103Z,11.68
2023-05-16T00:46:24.800Z,12.07
2023-05-16T00:46:37.714Z,12.45
2023-05-16T00:46:50.373Z,12.40
2023-05-16T00:47:03.990Z,11.85
2023-05-16T00:47:16.643Z,11.18
2023-05-16T00:47:29.233Z,11.10
2023-05-16T00:47:41.832Z,10.80
2023-05-16T00:47:55.789Z,11.73
2023-05-16T00:48:09.491Z,14.18
2023-05-16T00:48:22.097Z,15.20
2023-05-16T00:48:34.853Z,12.63
2023-05-16T00:48:47.445Z,12.18
2023-05-16T00:49:00.337Z,11.30
2023-05-16T00:49:13.964Z,11.10
2023-05-16T00:49:26.932Z,10.73
2023-05-16T00:49:39.596Z,11.70
2023-05-16T00:49:52.358Z,13.73
2023-05-16T00:50:05.924Z,13.88
2023-05-16T00:50:19.232Z,13.07
2023-05-16T00:50:33.606Z,12.50
2023-05-16T00:50:47.373Z,14.07
2023-05-16T00:51:00.839Z,13.65
2023-05-16T00:51:13.628Z,10.85
2023-05-16T00:51:26.325Z,12.90
2023-05-16T00:51:39.808Z,13.43
2023-05-16T00:51:53.229Z,13.13
2023-05-16T00:52:07.585Z,15.55
2023-05-16T00:52:20.155Z,15.25
2023-05-16T00:52:33.749Z,13.25
2023-05-16T00:52:46.844Z,11.27
2023-05-16T00:52:59.366Z,11.45
2023-05-16T00:53:13.475Z,12.73
2023-05-16T00:53:27.938Z,12.90
2023-05-16T00:53:40.449Z,14.52
2023-05-16T00:53:54.883Z,14.85
2023-05-16T00:54:07.651Z,13.43
2023-05-16T00:54:22.938Z,13.07
2023-05-16T00:54:35.999Z,12.85
2023-05-16T00:54:48.957Z,12.38
2023-05-16T00:55:02.358Z,12.38
2023-05-16T00:55:16.144Z,12.00
2023-05-16T00:55:28.749Z,12.35
2023-05-16T00:55:41.406Z,12.70
2023-05-16T00:55:56.585Z,12.02
2023-05-16T00:56:09.425Z,12.48
2023-05-16T00:56:22.818Z,12.32
2023-05-16T00:56:35.709Z,12.15
2023-05-16T00:56:49.289Z,12.95
2023-05-16T00:57:02.011Z,13.02
2023-05-16T00:57:14.599Z,13.23
2023-05-16T00:57:27.487Z,12.25
2023-05-16T00:57:40.616Z,12.40
2023-05-16T00:57:53.311Z,13.00
2023-05-16T00:58:06.701Z,12.40
2023-05-16T00:58:21.474Z,11.90
2023-05-16T00:58:35.434Z,12.23
2023-05-16T00:58:48.095Z,11.90
2023-05-16T00:59:00.785Z,11.48
2023-05-16T00:59:13.263Z,11.05
2023-05-16T00:59:26.445Z,11.57
2023-05-16T00:59:40.188Z,12.80
2023-05-16T00:59:52.827Z,13.13
2023-05-16T01:00:10.765Z,12.38
2023-05-16T01:00:23.430Z,11.98
2023-05-16T01:00:36.630Z,13.10
2023-05-16T01:00:49.953Z,13.27
2023-05-16T01:01:05.107Z,11.98
2023-05-16T01:01:20.101Z,11.88
2023-05-16T01:01:34.863Z,14.13
2023-05-16T01:01:47.826Z,15.52
2023-05-16T01:02:00.934Z,13.38
2023-05-16T01:02:13.921Z,12.57
2023-05-16T01:02:29.332Z,12.70
2023-05-16T01:02:42.148Z,13.73
2023-05-16T01:02:55.197Z,13.05
2023-05-16T01:03:09.826Z,11.65
2023-05-16T01:03:22.774Z,11.30
2023-05-16T01:03:35.776Z,11.70
2023-05-16T01:03:49.706Z,12.75
2023-05-16T01:04:03.518Z,13.30
2023-05-16T01:04:17.782Z,13.30
2023-05-16T01:04:32.473Z,13.10
2023-05-16T01:04:46.235Z,11.30
2023-05-16T01:04:59.446Z,11.93
2023-05-16T01:05:12.178Z,12.57
2023-05-16T01:05:26.500Z,12.52
2023-05-16T01:05:39.267Z,12.85
2023-05-16T01:05:52.090Z,13.23
2023-05-16T01:06:04.835Z,11.52
2023-05-16T01:06:17.608Z,12.73
2023-05-16T01:06:30.228Z,13.13
2023-05-16T01:06:42.793Z,13.45
2023-05-16T01:06:57.230Z,12.68
2023-05-16T01:07:09.812Z,11.98
2023-05-16T01:07:22.848Z,11.68
2023-05-16T01:07:35.993Z,11.50
2023-05-16T01:07:48.649Z,12.07
2023-05-16T01:08:01.130Z,12.50
2023-05-16T01:08:16.003Z,13.25
2023-05-16T01:08:28.519Z,12.98
2023-05-16T01:08:41.632Z,12.07
2023-05-16T01:08:54.252Z,10.93
2023-05-16T01:09:07.886Z,11.32
2023-05-16T01:09:20.556Z,12.50
2023-05-16T01:09:33.186Z,13.35
2023-05-16T01:09:46.066Z,12.07
2023-05-16T01:10:00.332Z,12.23
2023-05-16T01:10:13.335Z,12.65
2023-05-16T01:10:32.831Z,12.77
2023-05-16T01:10:53.659Z,12.35
2023-05-16T01:11:15.070Z,11.98
2023-05-16T01:11:34.559Z,12.10
2023-05-16T01:11:53.196Z,11.15
2023-05-16T01:12:15.074Z,12.57
2023-05-16T01:12:38.206Z,12.80
2023-05-16T01:13:01.442Z,12.27
2023-05-16T01:13:22.579Z,12.32
2023-05-16T01:13:44.559Z,14.13
2023-05-16T01:14:07.027Z,11.60
2023-05-16T01:14:26.780Z,11.63
2023-05-16T01:14:49.851Z,11.43
2023-05-16T01:15:08.726Z,11.20
2023-05-16T01:15:27.578Z,12.07
2023-05-16T01:15:47.580Z,12.45
2023-05-16T01:16:09.990Z,14.63
2023-05-16T01:16:27.218Z,14.52
2023-05-16T01:16:47.023Z,12.52
2023-05-16T01:17:07.430Z,11.52
2023-05-16T01:17:30.396Z,10.65
2023-05-16T01:17:54.501Z,10.60
2023-05-16T01:18:16.517Z,11.20
2023-05-16T01:18:36.326Z,12.52
2023-05-16T01:18:57.309Z,11.95
2023-05-16T01:19:20.897Z,11.30
2023-05-16T01:19:51.447Z,11.35
2023-05-16T01:20:15.393Z,10.68
2023-05-16T01:20:38.598Z,12.73
2023-05-16T01:21:00.518Z,12.38
2023-05-16T01:21:19.520Z,11.00
2023-05-16T01:21:42.667Z,10.57
2023-05-16T01:22:07.803Z,11.38
2023-05-16T01:22:31.198Z,12.60
2023-05-16T01:23:00.285Z,12.68
2023-05-16T01:23:28.376Z,10.48
2023-05-16T01:23:51.635Z,12.32
2023-05-16T01:24:13.557Z,12.38
2023-05-16T01:24:33.828Z,12.02
2023-05-16T01:25:03.926Z,11.30
2023-05-16T01:25:27.503Z,11.38
2023-05-16T01:25:56.778Z,10.98
2023-05-16T01:26:22.436Z,12.52
2023-05-16T01:26:36.985Z,11.13
2023-05-16T01:26:52.208Z,12.40
2023-05-16T01:27:06.095Z,12.63
2023-05-16T01:27:19.696Z,11.85
2023-05-16T01:27:32.974Z,11.55
2023-05-16T01:27:46.735Z,12.20
2023-05-16T01:27:59.831Z,12.27
2023-05-16T01:28:13.544Z,12.15
2023-05-16T01:28:28.216Z,13.43
2023-05-16T01:28:41.954Z,14.15
2023-05-16T01:28:55.108Z,13.55
2023-05-16T01:29:08.221Z,12.55
2023-05-16T01:29:21.349Z,12.50
2023-05-16T01:29:34.971Z,12.13
2023-05-16T01:29:47.493Z,12.25
2023-05-16T01:29:59.946Z,13.25
2023-05-16T01:30:16.063Z,13.05
2023-05-16T01:30:33.786Z,12.48
2023-05-16T01:30:46.840Z,12.55
2023-05-16T01:31:00.664Z,12.90
2023-05-16T01:31:14.586Z,11.70
2023-05-16T01:31:27.184Z,11.90
2023-05-16T01:31:39.920Z,11.98
2023-05-16T01:31:52.706Z,12.52
2023-05-16T01:32:05.920Z,12.88
2023-05-16T01:32:18.486Z,11.95
2023-05-16T01:32:31.169Z,11.73
2023-05-16T01:32:45.133Z,12.43
2023-05-16T01:32:57.700Z,12.25
2023-05-16T01:33:10.518Z,11.63
2023-05-16T01:33:23.068Z,11.25
2023-05-16T01:33:35.999Z,11.85
2023-05-16T01:33:50.580Z,12.73
2023-05-16T01:34:03.204Z,12.88
2023-05-16T01:34:16.076Z,12.88
2023-05-16T01:34:28.560Z,13.13
2023-05-16T01:34:41.253Z,13.32
2023-05-16T01:34:54.282Z,15.27
2023-05-16T01:35:10.240Z,14.35
2023-05-16T01:35:22.909Z,13.38
2023-05-16T01:35:41.120Z,14.35
2023-05-16T01:36:00.700Z,15.25
2023-05-16T01:36:22.100Z,12.45
2023-05-16T01:36:45.601Z,13.07
2023-05-16T01:37:09.146Z,12.50
2023-05-16T01:37:29.948Z,13.73
2023-05-16T01:37:46.630Z,14.48
2023-05-16T01:38:05.065Z,15.18
2023-05-16T01:38:26.653Z,14.35
2023-05-16T01:38:44.825Z,12.80
2023-05-16T01:39:03.399Z,15.18
2023-05-16T01:39:30.993Z,15.23
2023-05-16T01:39:49.004Z,14.80
2023-05-16T01:40:10.276Z,13.82
2023-05-16T01:40:30.120Z,14.18
2023-05-16T01:40:52.873Z,16.25
2023-05-16T01:41:11.406Z,14.07
2023-05-16T01:41:32.071Z,16.35
2023-05-16T01:41:55.604Z,16.38
2023-05-16T01:42:10.204Z,13.85
2023-05-16T01:42:27.300Z,13.73
2023-05-16T01:42:45.590Z,15.10
2023-05-16T01:43:00.685Z,16.23
2023-05-16T01:43:18.200Z,15.27
2023-05-16T01:43:34.830Z,12.60
2023-05-16T01:43:51.426Z,13.00
2023-05-16T01:44:11.291Z,15.68
2023-05-16T01:44:29.993Z,15.63
2023-05-16T01:44:46.987Z,15.77
2023-05-16T01:45:07.324Z,16.17
2023-05-16T01:45:24.891Z,15.10
2023-05-16T01:45:42.102Z,15.50
2023-05-16T01:46:00.548Z,15.80
2023-05-16T01:46:16.711Z,14.75
2023-05-16T01:46:34.280Z,14.52
2023-05-16T01:46:49.297Z,13.75
2023-05-16T01:47:04.933Z,15.13
2023-05-16T01:47:19.827Z,14.70
2023-05-16T01:47:33.497Z,14.10
2023-05-16T01:47:53.553Z,14.38
2023-05-16T01:48:09.730Z,15.73
2023-05-16T01:48:27.302Z,15.38
2023-05-16T01:48:49.876Z,15.38
2023-05-16T01:49:12.281Z,15.60
2023-05-16T01:49:31.617Z,14.73
2023-05-16T01:49:47.501Z,13.65
2023-05-16T01:50:08.540Z,13.57
2023-05-16T01:50:25.772Z,15.50
2023-05-16T01:50:44.365Z,15.02
2023-05-16T01:50:58.694Z,16.65
2023-05-16T01:51:13.189Z,16.80
2023-05-16T01:51:30.702Z,13.65
2023-05-16T01:51:49.625Z,14.32
2023-05-16T01:52:08.069Z,14.02
2023-05-16T01:52:28.676Z,14.77
2023-05-16T01:52:52.119Z,15.20
2023-05-16T01:53:09.231Z,14.98
2023-05-16T01:53:25.564Z,14.05
2023-05-16T01:53:39.323Z,13.60
2023-05-16T01:53:54.766Z,13.95
2023-05-16T01:54:13.838Z,14.27
2023-05-16T01:54:31.083Z,13.75
2023-05-16T01:54:46.599Z,14.27
2023-05-16T01:55:00.384Z,14.18
2023-05-16T01:55:18.979Z,14.30
2023-05-16T01:55:40.631Z,15.30
2023-05-16T01:55:57.128Z,14.50
2023-05-16T01:56:14.170Z,16.30
2023-05-16T01:56:29.692Z,15.85
2023-05-16T01:56:47.476Z,14.68
2023-05-16T01:57:02.268Z,15.13
2023-05-16T01:57:16.304Z,14.52
2023-05-16T01:57:30.084Z,15.23
2023-05-16T01:57:43.287Z,16.58
2023-05-16T01:57:56.714Z,16.35
2023-05-16T01:58:11.284Z,18.15
2023-05-16T01:58:28.397Z,16.70
2023-05-16T01:58:43.605Z,14.05
2023-05-16T01:59:00.374Z,15.32
2023-05-16T01:59:13.519Z,15.45
2023-05-16T01:59:27.289Z,14.90
2023-05-16T01:59:42.822Z,14.80
2023-05-16T01:59:55.337Z,14.85
2023-05-16T02:00:09.567Z,15.55
2023-05-16T02:00:22.361Z,14.68
2023-05-16T02:00:36.141Z,15.18
2023-05-16T02:00:49.085Z,14.75
2023-05-16T02:01:03.755Z,14.55
2023-05-16T02:01:16.421Z,14.98
2023-05-16T02:01:31.291Z,16.15
2023-05-16T02:01:43.879Z,15.77
2023-05-16T02:01:57.778Z,14.93
2023-05-16T02:02:11.410Z,16.35
2023-05-16T02:02:24.352Z,16.25
2023-05-16T02:02:37.008Z,15.43
2023-05-16T02:02:49.736Z,16.45
2023-05-16T02:03:02.663Z,17.42
2023-05-16T02:03:15.624Z,16.83
2023-05-16T02:03:28.373Z,15.95
2023-05-16T02:03:42.046Z,14.23
2023-05-16T02:03:54.611Z,15.20
2023-05-16T02:04:07.307Z,15.18
2023-05-16T02:04:20.040Z,13.70
2023-05-16T02:04:32.686Z,14.18
2023-05-16T02:04:45.236Z,14.77
2023-05-16T02:04:58.711Z,14.57
2023-05-16T02:05:11.427Z,13.10
2023-05-16T02:05:24.209Z,13.02
2023-05-16T02:05:36.852Z,13.02
2023-05-16T02:05:49.593Z,12.98
2023-05-16T02:06:02.278Z,13.07
2023-05-16T02:06:15.112Z,13.30
2023-05-16T02:06:27.732Z,13.70
2023-05-16T02:06:41.229Z,13.63
2023-05-16T02:06:53.892Z,13.25
2023-05-16T02:07:06.538Z,13.98
2023-05-16T02:07:19.898Z,16.02
2023-05-16T02:07:32.709Z,17.52
2023-05-16T02:07:45.441Z,16.63
2023-05-16T02:07:58.554Z,14.43
2023-05-16T02:08:11.267Z,14.15
2023-05-16T02:08:26.369Z,13.45
2023-05-16T02:08:39.009Z,13.70
2023-05-16T02:08:51.987Z,13.88
2023-05-16T02:09:04.543Z,14.25
2023-05-16T02:09:17.169Z,15.50
2023-05-16T02:09:29.655Z,15.35
2023-05-16T02:09:43.212Z,14.20
2023-05-16T02:09:56.013Z,12.88
2023-05-16T02:10:09.565Z,14.18
2023-05-16T02:10:22.512Z,14.75
2023-05-16T02:10:35.025Z,14.15
2023-05-16T02:10:47.707Z,14.35
2023-05-16T02:11:00.245Z,13.90
2023-05-16T02:11:14.024Z,12.68
2023-05-16T02:11:27.861Z,13.23
2023-05-16T02:11:40.486Z,13.60
2023-05-16T02:11:53.106Z,12.98
2023-05-16T02:12:06.183Z,12.80
2023-05-16T02:12:19.147Z,12.93
2023-05-16T02:12:32.607Z,13.48
2023-05-16T02:12:45.273Z,14.13
2023-05-16T02:12:57.972Z,13.02
2023-05-16T02:13:10.846Z,11.52
2023-05-16T02:13:23.369Z,13.02
2023-05-16T02:13:36.101Z,14.15
2023-05-16T02:13:49.777Z,13.27
2023-05-16T02:14:02.374Z,13.30
2023-05-16T02:14:14.902Z,13.05
2023-05-16T02:14:27.573Z,13.73
2023-05-16T02:14:40.086Z,13.95
2023-05-16T02:14:52.639Z,14.32
2023-05-16T02:15:06.268Z,14.52
2023-05-16T02:15:19.892Z,13.82
2023-05-16T02:15:32.435Z,13.27
2023-05-16T02:15:45.164Z,13.38
2023-05-16T02:15:57.931Z,13.07
2023-05-16T02:16:11.175Z,13.63
2023-05-16T02:16:23.865Z,13.23
2023-05-16T02:16:37.562Z,13.52
2023-05-16T02:16:50.179Z,14.02
2023-05-16T02:17:02.878Z,14.23
2023-05-16T02:17:15.701Z,14.10
2023-05-16T02:17:28.211Z,13.90
2023-05-16T02:17:40.946Z,13.88
2023-05-16T02:17:54.529Z,13.20
2023-05-16T02:18:07.533Z,12.55
2023-05-16T02:18:20.217Z,13.27
2023-05-16T02:18:32.732Z,14.38
2023-05-16T02:18:46.083Z,14.48
2023-05-16T02:18:58.877Z,13.07
2023-05-16T02:19:12.520Z,12.25
2023-05-16T02:19:25.156Z,12.05
2023-05-16T02:19:37.781Z,13.52
2023-05-16T02:19:50.548Z,14.70
2023-05-16T02:20:06.895Z,14.93
2023-05-16T02:20:19.435Z,13.88
2023-05-16T02:20:32.230Z,14.13
2023-05-16T02:20:45.796Z,14.43
2023-05-16T02:20:58.620Z,12.90
2023-05-16T02:21:11.164Z,13.07
2023-05-16T02:21:23.967Z,12.55
2023-05-16T02:21:36.668Z,14.18
2023-05-16T02:21:49.268Z,14.45
2023-05-16T02:22:02.827Z,13.32
2023-05-16T02:22:15.402Z,12.90
2023-05-16T02:22:28.252Z,12.52
2023-05-16T02:22:40.893Z,13.27
2023-05-16T02:22:53.439Z,13.90
2023-05-16T02:23:06.101Z,13.40
2023-05-16T02:23:18.599Z,14.25
2023-05-16T02:23:32.222Z,15.00
2023-05-16T02:23:44.757Z,14.27
2023-05-16T02:23:57.294Z,14.88
2023-05-16T02:24:09.860Z,14.32
2023-05-16T02:24:22.674Z,13.60
2023-05-16T02:24:35.426Z,13.98
2023-05-16T02:24:48.209Z,14.20
2023-05-16T02:25:02.273Z,14.05
2023-05-16T02:25:15.885Z,13.40
2023-05-16T02:25:28.895Z,13.25
2023-05-16T02:25:41.511Z,13.55
2023-05-16T02:25:54.010Z,13.60
2023-05-16T02:26:06.556Z,13.07
2023-05-16T02:26:20.838Z,13.13
2023-05-16T02:26:34.767Z,14.68
2023-05-16T02:26:47.280Z,15.13
2023-05-16T02:26:59.808Z,14.10
2023-05-16T02:27:12.308Z,12.82
2023-05-16T02:27:24.790Z,12.95
2023-05-16T02:27:37.320Z,14.38
2023-05-16T02:27:49.992Z,13.73
2023-05-16T02:28:03.572Z,12.52
2023-05-16T02:28:16.399Z,12.38
2023-05-16T02:28:29.246Z,12.27
2023-05-16T02:28:41.878Z,12.65
2023-05-16T02:28:54.505Z,13.55
2023-05-16T02:29:07.170Z,13.77
2023-05-16T02:29:19.822Z,13.07
2023-05-16T02:29:32.459Z,12.32
2023-05-16T02:29:45.999Z,12.15
2023-05-16T02:29:58.564Z,12.13
2023-05-16T02:30:12.083Z,12.75
2023-05-16T02:30:24.848Z,12.52
2023-05-16T02:30:37.351Z,12.30
2023-05-16T02:30:57.445Z,11.63
2023-05-16T02:31:11.101Z,11.68
2023-05-16T02:31:27.779Z,11.85
2023-05-16T02:31:40.765Z,12.20
2023-05-16T02:31:53.344Z,12.32
2023-05-16T02:32:06.710Z,12.32
2023-05-16T02:32:19.296Z,13.15
2023-05-16T02:32:32.012Z,13.50
2023-05-16T02:32:45.716Z,13.13
2023-05-16T02:32:58.336Z,12.52
2023-05-16T02:33:11.437Z,13.30
2023-05-16T02:33:24.115Z,13.07
2023-05-16T02:33:36.662Z,12.55
2023-05-16T02:33:49.176Z,12.55
2023-05-16T02:34:01.917Z,13.40
2023-05-16T02:34:15.352Z,13.25
2023-05-16T02:34:28.980Z,12.25
2023-05-16T02:34:42.973Z,11.90
2023-05-16T02:34:55.541Z,12.25
2023-05-16T02:35:08.264Z,12.90
2023-05-16T02:35:21.021Z,13.70
2023-05-16T02:35:33.532Z,14.70
2023-05-16T02:35:46.328Z,14.65
2023-05-16T02:35:59.826Z,14.75
2023-05-16T02:36:12.512Z,13.95
2023-05-16T02:36:25.200Z,13.48
2023-05-16T02:36:37.754Z,12.38
2023-05-16T02:36:50.532Z,13.40
2023-05-16T02:37:03.067Z,14.95
2023-05-16T02:37:16.104Z,15.95
2023-05-16T02:37:29.706Z,15.98
2023-05-16T02:37:42.661Z,12.75
2023-05-16T02:37:55.837Z,13.25
2023-05-16T02:38:08.384Z,12.95
2023-05-16T02:38:21.572Z,13.13
2023-05-16T02:38:34.138Z,14.45
2023-05-16T02:38:46.848Z,14.35
2023-05-16T02:39:00.434Z,13.77
2023-05-16T02:39:13.168Z,13.80
2023-05-16T02:39:26.021Z,13.85
2023-05-16T02:39:38.713Z,13.23
2023-05-16T02:39:51.243Z,13.10
2023-05-16T02:40:05.661Z,12.90
2023-05-16T02:40:18.367Z,12.23
2023-05-16T02:40:31.850Z,12.63
2023-05-16T02:40:44.341Z,13.13
2023-05-16T02:40:56.856Z,13.75
2023-05-16T02:41:09.492Z,12.95
2023-05-16T02:41:22.293Z,11.93
2023-05-16T02:41:36.236Z,11.65
2023-05-16T02:41:49.763Z,13.48
2023-05-16T02:42:02.508Z,13.75
2023-05-16T02:42:15.007Z,13.52
2023-05-16T02:42:27.808Z,14.18
2023-05-16T02:42:40.347Z,12.82
2023-05-16T02:42:52.893Z,12.52
2023-05-16T02:43:07.084Z,14.35
2023-05-16T02:43:19.624Z,13.98
2023-05-16T02:43:32.152Z,11.73
2023-05-16T02:43:46.858Z,12.05
2023-05-16T02:43:59.646Z,12.88
2023-05-16T02:44:12.233Z,12.27
2023-05-16T02:44:24.885Z,12.35
2023-05-16T02:44:38.407Z,12.25
2023-05-16T02:44:51.133Z,12.68
2023-05-16T02:45:04.018Z,12.50
2023-05-16T02:45:16.702Z,12.07
2023-05-16T02:45:29.268Z,11.80
2023-05-16T02:45:42.056Z,11.70
2023-05-16T02:45:55.903Z,11.13
2023-05-16T02:46:21.051Z,12.05
2023-05-16T02:46:34.749Z,12.18
2023-05-16T02:46:47.351Z,12.15
2023-05-16T02:47:00.410Z,11.90
2023-05-16T02:47:12.973Z,11.60
2023-05-16T02:47:26.807Z,12.25
2023-05-16T02:47:39.523Z,11.82
2023-05-16T02:47:52.119Z,11.02
2023-05-16T02:48:05.076Z,10.98
2023-05-16T02:48:17.599Z,10.75
2023-05-16T02:48:30.431Z,11.95
2023-05-16T02:48:42.993Z,12.55
2023-05-16T02:48:55.562Z,11.55
2023-05-16T02:49:09.079Z,10.57
2023-05-16T02:49:21.758Z,10.80
2023-05-16T02:49:34.407Z,10.63
2023-05-16T02:49:47.147Z,12.23
2023-05-16T02:49:59.758Z,13.27
2023-05-16T02:50:12.259Z,13.82
2023-05-16T02:50:24.770Z,14.15
2023-05-16T02:50:37.706Z,12.07
2023-05-16T02:50:52.040Z,11.60
2023-05-16T02:51:04.563Z,11.70
2023-05-16T02:51:17.071Z,11.95
2023-05-16T02:51:29.765Z,11.63
2023-05-16T02:51:42.270Z,11.73
2023-05-16T02:51:54.855Z,11.80
2023-05-16T02:52:07.846Z,15.90
2023-05-16T02:52:21.007Z,15.98
2023-05-16T02:52:33.509Z,12.75
2023-05-16T02:52:47.298Z,13.57
2023-05-16T02:53:02.357Z,13.82
2023-05-16T02:53:14.911Z,12.02
2023-05-16T02:53:27.404Z,11.93
2023-05-16T02:53:40.282Z,11.60
2023-05-16T02:53:53.619Z,10.77
2023-05-16T02:54:09.374Z,11.15
2023-05-16T02:54:22.419Z,11.38
2023-05-16T02:54:35.095Z,11.60
2023-05-16T02:54:56.110Z,12.88
2023-05-16T02:55:22.312Z,13.10
2023-05-16T02:55:36.128Z,11.52
2023-05-16T02:55:48.735Z,10.68
2023-05-16T02:56:01.315Z,10.30
2023-05-16T02:56:13.825Z,10.68
2023-05-16T02:56:26.616Z,10.75
2023-05-16T02:56:40.511Z,11.43
2023-05-16T02:56:53.243Z,11.48
2023-05-16T02:57:06.792Z,10.38
2023-05-16T02:57:19.335Z,9.50
2023-05-16T02:57:32.087Z,9.65
2023-05-16T02:57:44.582Z,10.70
2023-05-16T02:57:57.244Z,10.90
2023-05-16T02:58:10.071Z,10.63
2023-05-16T02:58:22.656Z,11.40
2023-05-16T02:58:36.163Z,11.70
2023-05-16T02:58:49.931Z,11.13
2023-05-16T02:59:02.489Z,10.93
2023-05-16T02:59:15.027Z,10.82
2023-05-16T02:59:27.759Z,10.57
2023-05-16T02:59:40.340Z,11.32
2023-05-16T02:59:53.818Z,10.73
2023-05-16T03:00:10.749Z,11.15
2023-05-16T03:00:23.704Z,11.20
2023-05-16T03:00:36.247Z,10.93
2023-05-16T03:00:48.758Z,11.13
2023-05-16T03:01:01.320Z,12.13
2023-05-16T03:01:15.194Z,11.93
2023-05-16T03:01:27.942Z,11.20
2023-05-16T03:01:40.605Z,10.50
2023-05-16T03:01:53.705Z,10.40
2023-05-16T03:02:06.366Z,9.75
2023-05-16T03:02:19.976Z,9.68
2023-05-16T03:02:32.678Z,9.82
2023-05-16T03:02:45.649Z,9.95
2023-05-16T03:02:58.392Z,10.35
2023-05-16T03:03:11.544Z,10.80
2023-05-16T03:03:24.363Z,10.90
2023-05-16T03:03:37.711Z,10.02